Napakiak, Alaska
Current Conditions -  °F | °C
As of 1:56 AM on Friday 19 Dec 2014 (Local Time) from PANA Reporting Station
Broken Clouds Broken Clouds  
Wind Chill:   Ceiling: 11000
Heat Index: 14°   Visibility: 10mi
Dew Point: 10°   Wind: 12mph
Humidity: 84%   Direction: 50°NE
Pressure: 29.19"   Gusts: NA
Location:  60.7°N, 161.95°W
Report Text: PANA 191056Z AUTO 05010KT 10SM BKN110 M10/M12 A2919 RMK AO2 SLP884 T11001122 FZRANO
Loading
Personal Weather Stations






























Interactive Weather Map New forecast layout! Learn more

10-Day Weather Forecast

Advertisements
Track Severe Weather on mobile